Andrews, SC

6:06 PM EDT on September 30, 2014 (GMT -0400)
Spring Gully | Change Station
CLOSE
Current Station
Personal Weather Station
Location: Georgetown, SC
Elevation: 20 ft
Nearby Weather Stations

Elev 20 ft 33.38 °N, 79.42 °W | Updated 13 minutes ago

Partly Cloudy
Partly Cloudy
78.8 °F
Feels Like 81 °F
N
0.0
Wind Variable Wind from North
Gusts 1.0 mph

Today
High -- | Low -- °F
--% Chance of Precip.
Yesterday
High -- | Low -- °F
Precip. -- in
7:11 AM 7:04 PM
Waxing Crescent, 40% visible
Pressure 29.85 in
Visibility 10.0 miles
Clouds Mostly Cloudy 4200 ft
Heat Index 81 °F
Dew Point 70 °F
Humidity 75%
Rainfall 0.00 in
Snow Depth Not available.
UV 0 out of 12
Pollen 5.10 out of 12
Air Quality Not available.
Flu Activity Not available.
METAR KGGE 302155Z AUTO 00000KT 10SM BKN042 25/19 A2985 RMK AO2

More Conditions Fewer Conditions

Pressure 29.85 in
Visibility 10.0 miles
Clouds Mostly Cloudy 4200 ft
Heat Index 81 °F
Dew Point 70 °F
Humidity 75%
Rainfall 0.00 in
Snow Depth Not available.
UV 0 out of 12
Pollen 5.10 out of 12
Air Quality Not available.
Flu Activity Not available.
METAR KGGE 302155Z AUTO 00000KT 10SM BKN042 25/19 A2985 RMK AO2

More Conditions Fewer Conditions

10-Day Weather Forecast

Almanac

Astronomy

Sep. 30, 2014 Rise Set
Actual Time 7:11 AM EDT 7:04 PM EDT
Civil Twilight 6:47 AM EDT 7:28 PM EDT
Nautical Twilight 6:18 AM EDT 7:57 PM EDT
Astronomical Twilight 5:49 AM EDT 8:26 PM EDT
Moon 1:05 PM EDT 11:45 PM EDT
Length of Visible Light 12h 41m
Length of Day
11h 52m
Tomorrow will be 2m 3s shorter.
Waxing Crescent, 40% of the Moon is Illuminated
Today
Waxing Crescent
Oct 1
First Quarter
Oct 8
Full
Oct 15
Last Quarter
Oct 23
New

Today's Extremes

State Highs State Lows

Community

WunderPhotos

Upload Photos

1,757,759 photos uploaded!

Nearby

Snow Depth

Station Depth Elevation
No new snow has been reported.

Earthquake Activity

City Distance Mag. Time & Date
No recent earthquake activity has been reported nearby.
Minimum magnitude displayed is 2.5.

Coastal Water Temperatures

Place Temperature
Springmaid Pier, SC 75.9 °F

Nearby Weather Stations